sensor_id;sensor_type;location;lat;lon;timestamp;pressure;altitude;pressure_sealevel;temperature;humidity
21706;BME280;11014;53.076;18.208;2023-02-23T00:00:35;101734.97;;;3.06;52.79
21706;BME280;11014;53.076;18.208;2023-02-23T00:03:16;101727.00;;;3.06;52.35
21706;BME280;11014;53.076;18.208;2023-02-23T00:05:44;101728.84;;;3.06;52.49
21706;BME280;11014;53.076;18.208;2023-02-23T00:08:13;101728.03;;;3.05;52.68
21706;BME280;11014;53.076;18.208;2023-02-23T00:10:42;101732.50;;;3.05;52.67
21706;BME280;11014;53.076;18.208;2023-02-23T00:13:11;101724.69;;;3.03;52.99
21706;BME280;11014;53.076;18.208;2023-02-23T00:15:40;101725.66;;;3.02;52.87
21706;BME280;11014;53.076;18.208;2023-02-23T00:18:08;101724.00;;;3.01;53.06
21706;BME280;11014;53.076;18.208;2023-02-23T00:20:37;101724.16;;;2.99;53.08
21706;BME280;11014;53.076;18.208;2023-02-23T00:23:11;101724.47;;;2.96;53.09
21706;BME280;11014;53.076;18.208;2023-02-23T00:25:40;101728.25;;;2.94;53.22
21706;BME280;11014;53.076;18.208;2023-02-23T00:28:12;101728.25;;;2.94;53.29
21706;BME280;11014;53.076;18.208;2023-02-23T00:30:41;101730.25;;;2.92;53.36
21706;BME280;11014;53.076;18.208;2023-02-23T00:33:10;101727.91;;;2.89;53.44
21706;BME280;11014;53.076;18.208;2023-02-23T00:35:41;101728.88;;;2.88;53.35
21706;BME280;11014;53.076;18.208;2023-02-23T00:38:09;101736.00;;;2.87;53.19
21706;BME280;11014;53.076;18.208;2023-02-23T00:40:39;101724.88;;;2.84;53.45
21706;BME280;11014;53.076;18.208;2023-02-23T00:43:08;101723.19;;;2.83;53.55
21706;BME280;11014;53.076;18.208;2023-02-23T00:45:37;101721.69;;;2.80;53.72
21706;BME280;11014;53.076;18.208;2023-02-23T00:48:05;101721.81;;;2.79;53.85
21706;BME280;11014;53.076;18.208;2023-02-23T00:50:39;101726.63;;;2.75;53.98
21706;BME280;11014;53.076;18.208;2023-02-23T00:53:09;101724.09;;;2.74;54.07
21706;BME280;11014;53.076;18.208;2023-02-23T00:55:40;101723.44;;;2.72;54.06
21706;BME280;11014;53.076;18.208;2023-02-23T00:58:09;101726.09;;;2.72;54.30
21706;BME280;11014;53.076;18.208;2023-02-23T01:00:42;101721.06;;;2.69;54.24
21706;BME280;11014;53.076;18.208;2023-02-23T01:03:10;101711.59;;;2.66;54.35
21706;BME280;11014;53.076;18.208;2023-02-23T01:05:39;101705.75;;;2.63;54.42
21706;BME280;11014;53.076;18.208;2023-02-23T01:08:08;101705.25;;;2.59;54.68
21706;BME280;11014;53.076;18.208;2023-02-23T01:10:39;101706.53;;;2.55;54.63
21706;BME280;11014;53.076;18.208;2023-02-23T01:13:11;101708.66;;;2.52;54.71
21706;BME280;11014;53.076;18.208;2023-02-23T01:15:41;101711.63;;;2.49;54.96
21706;BME280;11014;53.076;18.208;2023-02-23T01:18:11;101712.59;;;2.48;54.90
21706;BME280;11014;53.076;18.208;2023-02-23T01:20:41;101714.88;;;2.43;54.98
21706;BME280;11014;53.076;18.208;2023-02-23T01:23:14;101715.19;;;2.39;55.22
21706;BME280;11014;53.076;18.208;2023-02-23T01:25:44;101710.19;;;2.36;55.13
21706;BME280;11014;53.076;18.208;2023-02-23T01:28:12;101705.84;;;2.35;55.46
21706;BME280;11014;53.076;18.208;2023-02-23T01:30:41;101709.34;;;2.36;55.33
21706;BME280;11014;53.076;18.208;2023-02-23T01:33:10;101708.50;;;2.35;55.65
21706;BME280;11014;53.076;18.208;2023-02-23T01:35:40;101703.50;;;2.32;55.88
21706;BME280;11014;53.076;18.208;2023-02-23T01:38:12;101707.16;;;2.31;55.89
21706;BME280;11014;53.076;18.208;2023-02-23T01:40:42;101698.50;;;2.29;55.65
21706;BME280;11014;53.076;18.208;2023-02-23T01:43:16;101698.50;;;2.29;55.86
21706;BME280;11014;53.076;18.208;2023-02-23T01:45:45;101695.16;;;2.27;56.03
21706;BME280;11014;53.076;18.208;2023-02-23T01:48:16;101695.47;;;2.24;56.08
21706;BME280;11014;53.076;18.208;2023-02-23T01:51:14;101692.97;;;2.23;56.13
21706;BME280;11014;53.076;18.208;2023-02-23T01:53:55;101683.50;;;2.20;56.21
21706;BME280;11014;53.076;18.208;2023-02-23T01:56:32;101682.81;;;2.18;56.15
21706;BME280;11014;53.076;18.208;2023-02-23T01:59:06;101677.66;;;2.17;56.36
21706;BME280;11014;53.076;18.208;2023-02-23T02:01:35;101675.69;;;2.19;56.48
21706;BME280;11014;53.076;18.208;2023-02-23T02:04:06;101677.38;;;2.20;56.25
21706;BME280;11014;53.076;18.208;2023-02-23T02:06:35;101669.56;;;2.18;56.28
21706;BME280;11014;53.076;18.208;2023-02-23T02:09:08;101671.22;;;2.19;56.60
21706;BME280;11014;53.076;18.208;2023-02-23T02:11:43;101664.28;;;2.18;56.44
21706;BME280;11014;53.076;18.208;2023-02-23T02:14:16;101667.06;;;2.17;56.45
21706;BME280;11014;53.076;18.208;2023-02-23T02:17:14;101659.41;;;2.14;56.87
21706;BME280;11014;53.076;18.208;2023-02-23T02:23:11;101664.56;;;2.15;56.74
21706;BME280;11014;53.076;18.208;2023-02-23T02:26:01;101658.56;;;2.13;56.80
21706;BME280;11014;53.076;18.208;2023-02-23T02:29:08;101650.94;;;2.10;56.91
21706;BME280;11014;53.076;18.208;2023-02-23T02:32:53;101651.25;;;2.07;56.81
21706;BME280;11014;53.076;18.208;2023-02-23T02:40:23;101658.78;;;2.02;56.95
21706;BME280;11014;53.076;18.208;2023-02-23T02:43:16;101648.19;;;2.02;57.16
21706;BME280;11014;53.076;18.208;2023-02-23T02:46:12;101657.13;;;2.01;57.18
21706;BME280;11014;53.076;18.208;2023-02-23T02:49:37;101652.13;;;1.98;57.10
21706;BME280;11014;53.076;18.208;2023-02-23T02:51:57;101648.81;;;1.96;57.41
21706;BME280;11014;53.076;18.208;2023-02-23T02:54:55;101647.41;;;1.92;57.57
21706;BME280;11014;53.076;18.208;2023-02-23T02:57:24;101657.47;;;1.89;57.66
21706;BME280;11014;53.076;18.208;2023-02-23T02:59:54;101658.31;;;1.89;57.60
21706;BME280;11014;53.076;18.208;2023-02-23T03:02:43;101658.31;;;1.89;57.49
21706;BME280;11014;53.076;18.208;2023-02-23T03:05:42;101654.00;;;1.88;57.50
21706;BME280;11014;53.076;18.208;2023-02-23T03:08:43;101651.66;;;1.85;57.52
21706;BME280;11014;53.076;18.208;2023-02-23T03:11:48;101645.28;;;1.78;58.03
21706;BME280;11014;53.076;18.208;2023-02-23T03:14:48;101651.41;;;1.78;57.97
21706;BME280;11014;53.076;18.208;2023-02-23T03:17:48;101646.94;;;1.79;57.82
21706;BME280;11014;53.076;18.208;2023-02-23T03:20:46;101649.31;;;1.82;58.00
21706;BME280;11014;53.076;18.208;2023-02-23T03:23:49;101645.69;;;1.83;57.80
21706;BME280;11014;53.076;18.208;2023-02-23T03:26:51;101643.03;;;1.83;57.77
21706;BME280;11014;53.076;18.208;2023-02-23T03:29:48;101642.03;;;1.84;58.02
21706;BME280;11014;53.076;18.208;2023-02-23T03:33:00;101633.78;;;1.87;57.84
21706;BME280;11014;53.076;18.208;2023-02-23T03:35:58;101632.94;;;1.87;57.92
21706;BME280;11014;53.076;18.208;2023-02-23T03:39:04;101627.81;;;1.85;58.13
21706;BME280;11014;53.076;18.208;2023-02-23T03:41:58;101628.66;;;1.86;58.20
21706;BME280;11014;53.076;18.208;2023-02-23T03:44:49;101624.34;;;1.85;58.30
21706;BME280;11014;53.076;18.208;2023-02-23T03:47:40;101621.84;;;1.83;58.24
21706;BME280;11014;53.076;18.208;2023-02-23T03:50:34;101625.31;;;1.84;58.37
21706;BME280;11014;53.076;18.208;2023-02-23T03:53:32;101620.84;;;1.84;58.29
21706;BME280;11014;53.076;18.208;2023-02-23T03:56:23;101619.19;;;1.83;58.58
21706;BME280;11014;53.076;18.208;2023-02-23T03:59:14;101614.03;;;1.82;58.38
21706;BME280;11014;53.076;18.208;2023-02-23T04:02:05;101610.41;;;1.83;58.69
21706;BME280;11014;53.076;18.208;2023-02-23T04:04:55;101614.88;;;1.82;58.62
21706;BME280;11014;53.076;18.208;2023-02-23T04:07:46;101610.91;;;1.86;58.83
21706;BME280;11014;53.076;18.208;2023-02-23T04:10:39;101607.59;;;1.84;58.87
21706;BME280;11014;53.076;18.208;2023-02-23T04:13:29;101606.47;;;1.87;58.68
21706;BME280;11014;53.076;18.208;2023-02-23T04:16:08;101612.59;;;1.87;58.63
21706;BME280;11014;53.076;18.208;2023-02-23T04:18:40;101601.53;;;1.92;58.96
21706;BME280;11014;53.076;18.208;2023-02-23T04:21:09;101597.75;;;1.94;58.78
21706;BME280;11014;53.076;18.208;2023-02-23T04:23:39;101596.09;;;1.93;58.94
21706;BME280;11014;53.076;18.208;2023-02-23T04:26:08;101596.66;;;1.97;59.05
21706;BME280;11014;53.076;18.208;2023-02-23T04:28:37;101600.81;;;1.99;58.90
21706;BME280;11014;53.076;18.208;2023-02-23T04:31:05;101598.84;;;2.01;58.86
21706;BME280;11014;53.076;18.208;2023-02-23T04:33:34;101598.84;;;2.01;58.86
21706;BME280;11014;53.076;18.208;2023-02-23T04:36:02;101589.06;;;2.02;58.61
21706;BME280;11014;53.076;18.208;2023-02-23T04:38:31;101587.09;;;2.04;58.73
21706;BME280;11014;53.076;18.208;2023-02-23T04:40:59;101579.28;;;2.02;58.76
21706;BME280;11014;53.076;18.208;2023-02-23T04:43:28;101580.97;;;2.03;59.00
21706;BME280;11014;53.076;18.208;2023-02-23T04:45:56;101583.47;;;2.05;58.79
21706;BME280;11014;53.076;18.208;2023-02-23T04:48:25;101578.00;;;2.06;58.68
21706;BME280;11014;53.076;18.208;2023-02-23T04:50:54;101573.38;;;2.08;58.63
21706;BME280;11014;53.076;18.208;2023-02-23T04:53:24;101565.13;;;2.11;58.38
21706;BME280;11014;53.076;18.208;2023-02-23T04:55:53;101567.47;;;2.14;58.43
21706;BME280;11014;53.076;18.208;2023-02-23T04:58:22;101569.16;;;2.15;58.43
21706;BME280;11014;53.076;18.208;2023-02-23T05:00:50;101567.34;;;2.16;58.57
21706;BME280;11014;53.076;18.208;2023-02-23T05:03:44;101568.50;;;2.21;58.57
21706;BME280;11014;53.076;18.208;2023-02-23T05:06:12;101554.59;;;2.19;58.49
21706;BME280;11014;53.076;18.208;2023-02-23T05:08:43;101559.88;;;2.19;58.19
21706;BME280;11014;53.076;18.208;2023-02-23T05:11:12;101563.22;;;2.21;58.15
21706;BME280;11014;53.076;18.208;2023-02-23T05:13:41;101559.59;;;2.22;58.23
21706;BME280;11014;53.076;18.208;2023-02-23T05:16:09;101559.59;;;2.22;58.09
21706;BME280;11014;53.076;18.208;2023-02-23T05:18:39;101550.34;;;2.26;58.34
21706;BME280;11014;53.076;18.208;2023-02-23T05:21:07;101552.69;;;2.29;57.98
21706;BME280;11014;53.076;18.208;2023-02-23T05:23:37;101550.06;;;2.29;57.82
21706;BME280;11014;53.076;18.208;2023-02-23T05:26:10;101553.88;;;2.35;57.81
21706;BME280;11014;53.076;18.208;2023-02-23T05:28:41;101555.56;;;2.36;57.68
21706;BME280;11014;53.076;18.208;2023-02-23T05:31:10;101551.09;;;2.36;57.88
21706;BME280;11014;53.076;18.208;2023-02-23T05:33:40;101550.78;;;2.39;57.85
21706;BME280;11014;53.076;18.208;2023-02-23T05:36:15;101549.63;;;2.42;57.65
21706;BME280;11014;53.076;18.208;2023-02-23T05:38:45;101539.13;;;2.58;57.42
21706;BME280;11014;53.076;18.208;2023-02-23T05:41:16;101540.22;;;2.48;57.33
21706;BME280;11014;53.076;18.208;2023-02-23T05:43:46;101537.56;;;2.48;57.40
21706;BME280;11014;53.076;18.208;2023-02-23T05:46:17;101538.56;;;2.47;57.39
21706;BME280;11014;53.076;18.208;2023-02-23T05:48:47;101530.59;;;2.47;57.43
21706;BME280;11014;53.076;18.208;2023-02-23T05:51:16;101533.13;;;2.48;57.62
21706;BME280;11014;53.076;18.208;2023-02-23T05:53:46;101536.59;;;2.49;57.54
21706;BME280;11014;53.076;18.208;2023-02-23T05:56:19;101532.81;;;2.51;57.52
21706;BME280;11014;53.076;18.208;2023-02-23T05:58:52;101541.44;;;2.53;57.42
21706;BME280;11014;53.076;18.208;2023-02-23T06:01:21;101534.97;;;2.56;57.31
21706;BME280;11014;53.076;18.208;2023-02-23T06:03:50;101540.81;;;2.59;57.10
21706;BME280;11014;53.076;18.208;2023-02-23T06:06:27;101524.72;;;2.61;57.12
21706;BME280;11014;53.076;18.208;2023-02-23T06:08:56;101534.06;;;2.65;56.99
21706;BME280;11014;53.076;18.208;2023-02-23T06:11:24;101531.41;;;2.65;56.82
21706;BME280;11014;53.076;18.208;2023-02-23T06:13:53;101527.13;;;2.72;56.77
21706;BME280;11014;53.076;18.208;2023-02-23T06:16:22;101528.13;;;2.79;56.83
21706;BME280;11014;53.076;18.208;2023-02-23T06:18:51;101527.81;;;2.82;56.74
21706;BME280;11014;53.076;18.208;2023-02-23T06:21:20;101529.84;;;2.88;56.61
21706;BME280;11014;53.076;18.208;2023-02-23T06:23:48;101531.22;;;2.92;56.60
21706;BME280;11014;53.076;18.208;2023-02-23T06:26:17;101524.75;;;2.94;56.29
21706;BME280;11014;53.076;18.208;2023-02-23T06:28:45;101527.22;;;2.96;56.19
21706;BME280;11014;53.076;18.208;2023-02-23T06:31:14;101534.56;;;3.02;56.23
21706;BME280;11014;53.076;18.208;2023-02-23T06:33:42;101533.25;;;3.06;56.16
21706;BME280;11014;53.076;18.208;2023-02-23T06:36:10;101535.75;;;3.08;55.96
21706;BME280;11014;53.076;18.208;2023-02-23T06:38:39;101520.34;;;3.11;55.98
21706;BME280;11014;53.076;18.208;2023-02-23T06:41:09;101528.00;;;3.14;56.00
21706;BME280;11014;53.076;18.208;2023-02-23T06:43:37;101525.00;;;3.17;55.75
21706;BME280;11014;53.076;18.208;2023-02-23T06:46:06;101523.69;;;3.21;55.84
21706;BME280;11014;53.076;18.208;2023-02-23T06:48:35;101527.66;;;3.25;55.96
21706;BME280;11014;53.076;18.208;2023-02-23T06:51:05;101520.53;;;3.26;55.64
21706;BME280;11014;53.076;18.208;2023-02-23T06:53:33;101523.41;;;3.32;55.54
21706;BME280;11014;53.076;18.208;2023-02-23T06:56:02;101534.19;;;3.39;55.50
21706;BME280;11014;53.076;18.208;2023-02-23T06:58:31;101525.44;;;3.46;55.34
21706;BME280;11014;53.076;18.208;2023-02-23T07:01:00;101518.47;;;3.53;55.41
21706;BME280;11014;53.076;18.208;2023-02-23T07:03:29;101519.50;;;3.61;55.42
21706;BME280;11014;53.076;18.208;2023-02-23T07:05:57;101519.66;;;3.67;55.23
21706;BME280;11014;53.076;18.208;2023-02-23T07:08:26;101518.34;;;3.71;55.15
21706;BME280;11014;53.076;18.208;2023-02-23T07:10:54;101513.19;;;3.78;55.06
21706;BME280;11014;53.076;18.208;2023-02-23T07:13:24;101516.03;;;3.84;54.90
21706;BME280;11014;53.076;18.208;2023-02-23T07:15:56;101512.88;;;3.89;54.69
21706;BME280;11014;53.076;18.208;2023-02-23T07:18:26;101514.88;;;3.95;54.80
21706;BME280;11014;53.076;18.208;2023-02-23T07:20:54;101513.38;;;4.00;54.61
21706;BME280;11014;53.076;18.208;2023-02-23T07:23:23;101504.06;;;4.04;54.40
21706;BME280;11014;53.076;18.208;2023-02-23T07:25:52;101506.88;;;4.11;54.32
21706;BME280;11014;53.076;18.208;2023-02-23T07:28:23;101501.06;;;4.32;53.99
21706;BME280;11014;53.076;18.208;2023-02-23T07:30:57;101508.22;;;4.23;53.80
21706;BME280;11014;53.076;18.208;2023-02-23T07:33:26;101503.88;;;4.38;53.91
21706;BME280;11014;53.076;18.208;2023-02-23T07:35:54;101503.88;;;4.30;53.90
21706;BME280;11014;53.076;18.208;2023-02-23T07:38:23;101498.41;;;4.32;53.66
21706;BME280;11014;53.076;18.208;2023-02-23T07:40:51;101496.06;;;4.37;54.00
21706;BME280;11014;53.076;18.208;2023-02-23T07:43:20;101489.91;;;4.44;53.94
21706;BME280;11014;53.076;18.208;2023-02-23T07:45:50;101490.22;;;4.49;53.95
21706;BME280;11014;53.076;18.208;2023-02-23T07:48:19;101488.53;;;4.56;53.86
21706;BME280;11014;53.076;18.208;2023-02-23T07:50:47;101482.53;;;4.62;53.52
21706;BME280;11014;53.076;18.208;2023-02-23T07:53:16;101481.50;;;4.71;53.69
21706;BME280;11014;53.076;18.208;2023-02-23T07:55:44;101479.81;;;4.78;53.38
21706;BME280;11014;53.076;18.208;2023-02-23T07:58:13;101478.28;;;4.84;53.39
21706;BME280;11014;53.076;18.208;2023-02-23T08:00:41;101471.13;;;4.85;53.20
21706;BME280;11014;53.076;18.208;2023-02-23T08:03:10;101473.13;;;4.91;52.92
21706;BME280;11014;53.076;18.208;2023-02-23T08:05:39;101468.75;;;4.98;52.90
21706;BME280;11014;53.076;18.208;2023-02-23T08:08:08;101462.56;;;5.05;53.17
21706;BME280;11014;53.076;18.208;2023-02-23T08:10:37;101456.38;;;5.13;53.08
21706;BME280;11014;53.076;18.208;2023-02-23T08:13:06;101460.00;;;5.20;52.61
21706;BME280;11014;53.076;18.208;2023-02-23T08:15:34;101455.97;;;5.24;52.77
21706;BME280;11014;53.076;18.208;2023-02-23T08:18:03;101454.59;;;5.28;52.36
21706;BME280;11014;53.076;18.208;2023-02-23T08:20:32;101460.63;;;5.30;52.35
21706;BME280;11014;53.076;18.208;2023-02-23T08:23:01;101460.44;;;5.31;52.57
21706;BME280;11014;53.076;18.208;2023-02-23T08:25:29;101452.91;;;5.35;52.22
21706;BME280;11014;53.076;18.208;2023-02-23T08:27:58;101450.91;;;5.37;52.07
21706;BME280;11014;53.076;18.208;2023-02-23T08:30:32;101450.56;;;5.40;52.04
21706;BME280;11014;53.076;18.208;2023-02-23T08:33:01;101448.88;;;5.39;51.97
21706;BME280;11014;53.076;18.208;2023-02-23T08:35:30;101452.88;;;5.43;52.15
21706;BME280;11014;53.076;18.208;2023-02-23T08:37:58;101446.66;;;5.51;52.37
21706;BME280;11014;53.076;18.208;2023-02-23T08:40:27;101435.09;;;5.58;52.21
21706;BME280;11014;53.076;18.208;2023-02-23T08:42:55;101439.06;;;5.62;52.05
21706;BME280;11014;53.076;18.208;2023-02-23T08:45:24;101443.03;;;5.66;52.27
21706;BME280;11014;53.076;18.208;2023-02-23T08:47:53;101442.31;;;5.72;52.06
21706;BME280;11014;53.076;18.208;2023-02-23T08:50:22;101437.63;;;5.74;52.24
21706;BME280;11014;53.076;18.208;2023-02-23T08:52:54;101447.09;;;6.00;51.94
21706;BME280;11014;53.076;18.208;2023-02-23T08:55:22;101437.50;;;5.90;52.04
21706;BME280;11014;53.076;18.208;2023-02-23T08:57:51;101434.50;;;5.93;51.91
21706;BME280;11014;53.076;18.208;2023-02-23T09:00:20;101421.09;;;6.02;52.00
21706;BME280;11014;53.076;18.208;2023-02-23T09:02:48;101424.34;;;6.12;52.14
21706;BME280;11014;53.076;18.208;2023-02-23T09:05:17;101410.72;;;6.21;52.24
21706;BME280;11014;53.076;18.208;2023-02-23T09:07:46;101411.47;;;6.30;51.85
21706;BME280;11014;53.076;18.208;2023-02-23T09:10:18;101417.34;;;6.40;51.79
21706;BME280;11014;53.076;18.208;2023-02-23T09:12:47;101403.53;;;6.51;51.66
21706;BME280;11014;53.076;18.208;2023-02-23T09:15:16;101401.50;;;6.53;51.59
21706;BME280;11014;53.076;18.208;2023-02-23T09:17:45;101388.91;;;6.62;51.54
21706;BME280;11014;53.076;18.208;2023-02-23T09:20:15;101391.94;;;6.73;51.38
21706;BME280;11014;53.076;18.208;2023-02-23T09:22:44;101382.53;;;6.77;51.21
21706;BME280;11014;53.076;18.208;2023-02-23T09:25:17;101379.41;;;6.88;51.43
21706;BME280;11014;53.076;18.208;2023-02-23T09:27:50;101386.47;;;6.96;51.14
21706;BME280;11014;53.076;18.208;2023-02-23T09:30:20;101378.25;;;6.97;50.75
21706;BME280;11014;53.076;18.208;2023-02-23T09:32:50;101380.53;;;7.00;50.80
21706;BME280;11014;53.076;18.208;2023-02-23T09:35:20;101381.72;;;7.12;50.38
21706;BME280;11014;53.076;18.208;2023-02-23T09:37:53;101374.09;;;7.31;50.52
21706;BME280;11014;53.076;18.208;2023-02-23T09:40:25;101374.19;;;7.44;50.09
21706;BME280;11014;53.076;18.208;2023-02-23T09:48:28;101359.28;;;7.77;49.68
21706;BME280;11014;53.076;18.208;2023-02-23T09:50:57;101362.81;;;7.84;49.24
21706;BME280;11014;53.076;18.208;2023-02-23T09:53:41;101360.78;;;7.86;49.24
21706;BME280;11014;53.076;18.208;2023-02-23T09:56:35;101357.81;;;8.02;49.13
21706;BME280;11014;53.076;18.208;2023-02-23T09:59:06;101361.72;;;8.06;48.52
21706;BME280;11014;53.076;18.208;2023-02-23T10:02:13;101359.56;;;8.16;48.79
21706;BME280;11014;53.076;18.208;2023-02-23T10:05:07;101362.47;;;8.21;48.50
21706;BME280;11014;53.076;18.208;2023-02-23T10:07:50;101360.91;;;8.33;48.90
21706;BME280;11014;53.076;18.208;2023-02-23T10:16:11;101356.88;;;8.51;48.17
21706;BME280;11014;53.076;18.208;2023-02-23T10:18:57;101352.84;;;8.68;48.34
21706;BME280;11014;53.076;18.208;2023-02-23T10:21:35;101355.34;;;8.76;48.09
21706;BME280;11014;53.076;18.208;2023-02-23T10:24:17;101354.53;;;8.82;47.58
21706;BME280;11014;53.076;18.208;2023-02-23T10:26:51;101365.25;;;8.88;47.96
21706;BME280;11014;53.076;18.208;2023-02-23T10:29:26;101349.22;;;8.95;47.74
21706;BME280;11014;53.076;18.208;2023-02-23T10:32:14;101350.69;;;9.04;47.42
21706;BME280;11014;53.076;18.208;2023-02-23T10:34:44;101349.88;;;9.17;47.55
21706;BME280;11014;53.076;18.208;2023-02-23T10:37:16;101339.59;;;9.27;47.73
21706;BME280;11014;53.076;18.208;2023-02-23T10:39:45;101341.88;;;9.36;47.54
21706;BME280;11014;53.076;18.208;2023-02-23T10:42:22;101338.38;;;9.49;47.66
21706;BME280;11014;53.076;18.208;2023-02-23T10:44:57;101337.97;;;9.59;47.07
21706;BME280;11014;53.076;18.208;2023-02-23T10:47:34;101332.41;;;9.67;47.20
21706;BME280;11014;53.076;18.208;2023-02-23T10:50:03;101331.53;;;9.73;47.17
21706;BME280;11014;53.076;18.208;2023-02-23T10:52:45;101319.16;;;9.78;46.44
21706;BME280;11014;53.076;18.208;2023-02-23T10:55:27;101320.41;;;9.76;46.57
21706;BME280;11014;53.076;18.208;2023-02-23T10:58:17;101321.22;;;9.89;46.79
21706;BME280;11014;53.076;18.208;2023-02-23T11:00:54;101314.81;;;9.97;46.95
21706;BME280;11014;53.076;18.208;2023-02-23T11:03:28;101310.84;;;10.06;46.79
21706;BME280;11014;53.076;18.208;2023-02-23T11:05:59;101317.88;;;10.20;46.63
21706;BME280;11014;53.076;18.208;2023-02-23T11:08:37;101314.13;;;10.34;46.54
21706;BME280;11014;53.076;18.208;2023-02-23T11:11:21;101304.38;;;10.46;46.16
21706;BME280;11014;53.076;18.208;2023-02-23T11:13:53;101303.31;;;10.54;45.84
21706;BME280;11014;53.076;18.208;2023-02-23T11:16:28;101302.41;;;10.66;45.90
21706;BME280;11014;53.076;18.208;2023-02-23T11:19:02;101294.53;;;10.71;45.72
21706;BME280;11014;53.076;18.208;2023-02-23T11:21:33;101291.97;;;10.83;45.16
21706;BME280;11014;53.076;18.208;2023-02-23T11:26:42;101284.81;;;11.02;45.42
21706;BME280;11014;53.076;18.208;2023-02-23T11:29:35;101282.66;;;11.17;44.66
21706;BME280;11014;53.076;18.208;2023-02-23T11:34:48;101268.94;;;11.25;44.98
21706;BME280;11014;53.076;18.208;2023-02-23T11:37:36;101261.66;;;11.32;45.02
21706;BME280;11014;53.076;18.208;2023-02-23T11:40:19;101255.06;;;11.53;45.15
21706;BME280;11014;53.076;18.208;2023-02-23T11:43:11;101251.53;;;11.77;44.65
21706;BME280;11014;53.076;18.208;2023-02-23T11:45:47;101250.41;;;11.84;43.77
21706;BME280;11014;53.076;18.208;2023-02-23T11:51:36;101233.81;;;12.06;43.90
21706;BME280;11014;53.076;18.208;2023-02-23T11:54:06;101228.38;;;12.42;44.01
21706;BME280;11014;53.076;18.208;2023-02-23T11:56:38;101232.88;;;12.48;43.27
21706;BME280;11014;53.076;18.208;2023-02-23T11:59:15;101229.94;;;13.21;42.62
21706;BME280;11014;53.076;18.208;2023-02-23T12:01:50;101229.13;;;14.18;40.63
21706;BME280;11014;53.076;18.208;2023-02-23T12:04:36;101221.03;;;15.19;39.26
21706;BME280;11014;53.076;18.208;2023-02-23T12:07:32;101217.59;;;16.17;38.54
21706;BME280;11014;53.076;18.208;2023-02-23T12:13:04;101207.06;;;17.33;35.06
21706;BME280;11014;53.076;18.208;2023-02-23T12:21:17;101186.13;;;18.27;33.99
21706;BME280;11014;53.076;18.208;2023-02-23T12:23:52;101182.44;;;18.63;33.49
21706;BME280;11014;53.076;18.208;2023-02-23T12:26:24;101173.72;;;18.91;32.67
21706;BME280;11014;53.076;18.208;2023-02-23T12:30:04;101172.63;;;19.28;31.86
21706;BME280;11014;53.076;18.208;2023-02-23T12:32:33;101163.88;;;19.61;32.42
21706;BME280;11014;53.076;18.208;2023-02-23T12:35:16;101168.38;;;19.96;31.17
21706;BME280;11014;53.076;18.208;2023-02-23T12:37:52;101160.31;;;20.25;30.68
21706;BME280;11014;53.076;18.208;2023-02-23T12:40:29;101155.06;;;20.38;30.12
21706;BME280;11014;53.076;18.208;2023-02-23T12:43:03;101144.81;;;20.64;29.94
21706;BME280;11014;53.076;18.208;2023-02-23T12:45:35;101144.22;;;20.67;29.59
21706;BME280;11014;53.076;18.208;2023-02-23T12:48:47;101130.50;;;20.77;30.53
21706;BME280;11014;53.076;18.208;2023-02-23T12:51:40;101133.63;;;20.94;30.01
21706;BME280;11014;53.076;18.208;2023-02-23T12:54:14;101123.53;;;21.23;29.20
21706;BME280;11014;53.076;18.208;2023-02-23T12:56:59;101121.22;;;21.12;28.70
21706;BME280;11014;53.076;18.208;2023-02-23T13:02:40;101107.34;;;21.03;29.04
21706;BME280;11014;53.076;18.208;2023-02-23T13:05:23;101100.72;;;21.09;29.19
21706;BME280;11014;53.076;18.208;2023-02-23T13:16:42;101088.41;;;20.10;29.77
21706;BME280;11014;53.076;18.208;2023-02-23T13:24:42;101063.44;;;19.14;30.84
21706;BME280;11014;53.076;18.208;2023-02-23T13:27:44;101053.72;;;18.68;31.47
21706;BME280;11014;53.076;18.208;2023-02-23T13:30:17;101061.56;;;18.14;31.79
21706;BME280;11014;53.076;18.208;2023-02-23T13:32:48;101054.91;;;17.59;32.72
21706;BME280;11014;53.076;18.208;2023-02-23T13:35:18;101052.59;;;17.36;32.73
21706;BME280;11014;53.076;18.208;2023-02-23T13:37:53;101043.78;;;17.19;33.61
21706;BME280;11014;53.076;18.208;2023-02-23T13:40:25;101032.88;;;17.04;33.61
21706;BME280;11014;53.076;18.208;2023-02-23T13:43:13;101035.44;;;16.84;34.35
21706;BME280;11014;53.076;18.208;2023-02-23T13:48:52;101029.06;;;16.58;34.97
21706;BME280;11014;53.076;18.208;2023-02-23T13:51:42;101028.53;;;16.34;34.99
21706;BME280;11014;53.076;18.208;2023-02-23T13:56:44;101027.44;;;15.77;36.17
21706;BME280;11014;53.076;18.208;2023-02-23T13:59:20;101030.94;;;15.51;36.48
21706;BME280;11014;53.076;18.208;2023-02-23T14:01:52;101026.84;;;15.26;36.83
21706;BME280;11014;53.076;18.208;2023-02-23T14:04:33;101022.34;;;15.15;37.09
21706;BME280;11014;53.076;18.208;2023-02-23T14:07:32;101027.06;;;15.03;37.46
21706;BME280;11014;53.076;18.208;2023-02-23T14:10:05;101020.44;;;14.94;37.99
21706;BME280;11014;53.076;18.208;2023-02-23T14:12:40;101024.16;;;14.88;38.13
21706;BME280;11014;53.076;18.208;2023-02-23T14:31:29;101010.13;;;14.24;39.29
21706;BME280;11014;53.076;18.208;2023-02-23T14:34:00;101005.41;;;14.15;39.80
21706;BME280;11014;53.076;18.208;2023-02-23T14:36:36;101006.59;;;14.07;39.66
21706;BME280;11014;53.076;18.208;2023-02-23T14:39:15;101006.91;;;13.94;39.96
21706;BME280;11014;53.076;18.208;2023-02-23T14:41:53;101006.06;;;13.77;39.97
21706;BME280;11014;53.076;18.208;2023-02-23T14:49:52;100997.44;;;13.35;41.02
21706;BME280;11014;53.076;18.208;2023-02-23T14:52:24;101001.66;;;13.31;41.66